LFGQ weather

Semur En Auxois Airfield
Semur En Auxois, Bourgogne-Franche-Comté, France

Public forecast

Using degrees Celsius for public forecast. Weather courtesy of forecast.io.

Closest aviation weather report (METAR) to Semur En Auxois Airfield

Closest report is Dijon-Bourgogne Airport, 32.9 nm (61.0 km) ESE. Retrieved 2020/08/04 01:30 UTC (30 minutes ago):

LFSD 040130Z AUTO 33010KT CAVOK 15/10 Q1015

Closest aviation forecast (TAF) to Semur En Auxois Airfield

Forecast is more than 12 hours old.

Closest forecast is Dijon-Bourgogne Airport, 32.9 nm (61.0 km) ESE. Retrieved 2015/06/01 00:11 UTC (5 years ago):

TAF LFSD 010600Z 0100/0124 CNL